Search for airport 
image banner adimage banner adimage banner ad
image banner ad

7IA9 - Pella Rgnl Health Center

Located in Pella, United States

ICAO - 7IA9, IATA -

Data provided by Airmate  

General information

Coordinates: N41°24'46" W92°54'44"
Elevation is 836 feet MSL.
Magnetic variation is 03° East
View others Airports in Iowa

Operational data

Special qualification required
Current time UTC:
Current local time:
Weather at : KPEA - Pella Muni ( 3 km )
METAR: KPEA 181715Z AUTO 08003KT 10SM 29/19 A2984 RMK AO2 T02890194
View NOTAMs / SUP AIP / TFR affecting this airport [VIEW]
Communications frequencies: [VIEW]

Runways:

Airport contact information

Address: Pella United States

Satellite view of 7IA9